Terminal Aerodrome Forecast
Issued by NWS

Home | Current Version | Previous Version | Text Only | Print | Product List | Glossary On
Versions: 1 2 3 4 5 6 7 8 9 10 11 12 13 14
000
FTUS45 KVEF 252100 AAA
TAFHND
TAF AMD
KHND 252122Z 2521/2618 03011KT P6SM SKC
     FM260300 16007KT P6SM SKC
     FM261700 VRB05KT P6SM SCT150 BKN200=

USA.gov is the U.S. government's official web portal to all federal, state and local government web resources and services.